Time;durP1;ratioP1;P1;durP2;ratioP2;P2;SDS_P1;SDS_P2;PMS_P1;PMS_P2;Temp;Humidity;BMP_temperature;BMP_pressure;BME280_temperature;BME280_humidity;BME280_pressure;Samples;Min_cycle;Max_cycle;Signal;HPM_P1;HPM_P2
2022/01/19 00:01:39;;;;;;;65.43;16.63;;;-1.30;99.90;;;;;;4380286;28;659317;-75
2022/01/19 00:04:29;;;;;;;42.40;12.98;;;-1.30;99.90;;;;;;4356866;28;658774;-74
2022/01/19 00:07:16;;;;;;;58.13;17.27;;;-1.20;99.90;;;;;;4377457;28;658231;-75
2022/01/19 00:10:08;;;;;;;54.03;16.03;;;-1.20;99.90;;;;;;4354065;28;660224;-75
2022/01/19 00:12:56;;;;;;;46.00;15.75;;;-1.20;99.90;;;;;;4338021;28;659239;-75
2022/01/19 00:15:44;;;;;;;56.13;16.07;;;-1.20;99.90;;;;;;4358951;28;659389;-75
2022/01/19 00:18:31;;;;;;;54.03;14.63;;;-1.20;99.90;;;;;;4374535;28;658912;-75
2022/01/19 00:21:20;;;;;;;55.73;17.60;;;-1.10;99.90;;;;;;4343457;28;659775;-75
2022/01/19 00:24:08;;;;;;;50.00;13.70;;;-1.10;99.90;;;;;;4356151;28;658961;-75
2022/01/19 00:26:55;;;;;;;55.57;17.07;;;-1.10;99.90;;;;;;4374770;28;659664;-75
2022/01/19 00:29:43;;;;;;;51.13;16.10;;;-1.10;99.90;;;;;;4340216;28;658623;-74
2022/01/19 00:32:30;;;;;;;59.97;17.53;;;-1.20;99.90;;;;;;4374858;28;658572;-74
2022/01/19 00:35:18;;;;;;;54.57;17.07;;;-1.20;99.90;;;;;;4356670;28;658564;-75
2022/01/19 00:38:07;;;;;;;61.90;18.23;;;-1.20;99.90;;;;;;4370248;28;659240;-75
2022/01/19 00:40:57;;;;;;;60.27;18.10;;;-1.20;99.90;;;;;;4351775;28;659700;-75
2022/01/19 00:43:45;;;;;;;60.07;18.47;;;-1.10;99.90;;;;;;4351649;28;659417;-75
2022/01/19 00:46:32;;;;;;;55.73;16.47;;;-1.10;99.90;;;;;;4341118;28;658680;-75
2022/01/19 00:49:20;;;;;;;48.40;13.60;;;-1.10;99.90;;;;;;4376645;28;658533;-75
2022/01/19 00:52:07;;;;;;;59.37;17.40;;;-1.20;99.90;;;;;;4353753;28;658902;-75
2022/01/19 00:54:56;;;;;;;41.23;12.17;;;-1.10;99.90;;;;;;4375867;28;658225;-75
2022/01/19 00:57:44;;;;;;;56.50;16.27;;;-1.10;99.90;;;;;;4351031;28;659949;-75
2022/01/19 01:00:32;;;;;;;50.87;18.03;;;-1.00;99.90;;;;;;4371232;28;658688;-75
2022/01/19 01:03:19;;;;;;;63.83;18.33;;;-1.10;99.90;;;;;;4348427;28;659558;-75
2022/01/19 01:06:07;;;;;;;64.63;17.70;;;-1.10;99.90;;;;;;4363951;28;658711;-75
2022/01/19 01:08:55;;;;;;;54.70;16.13;;;-1.10;99.90;;;;;;4372661;28;658360;-75
2022/01/19 01:11:57;;;;;;;53.60;15.93;;;-1.10;99.90;;;;;;4353329;28;659142;-75
2022/01/19 01:20:56;;;;;;;57.17;19.57;;;-1.00;99.90;;;;;;4323000;28;658917;-74
2022/01/19 01:23:43;;;;;;;64.57;19.57;;;-1.10;99.90;;;;;;4354765;28;658383;-75
2022/01/19 01:26:31;;;;;;;61.97;18.70;;;-1.00;99.90;;;;;;4380168;28;658330;-75
2022/01/19 01:29:20;;;;;;;64.50;19.57;;;-1.00;99.90;;;;;;4354902;28;659548;-75
2022/01/19 01:32:08;;;;;;;61.27;19.60;;;-1.00;99.90;;;;;;4352725;28;658772;-75
2022/01/19 01:34:56;;;;;;;59.70;15.27;;;-1.00;99.90;;;;;;4373143;28;658056;-75
2022/01/19 01:37:43;;;;;;;52.07;18.00;;;-1.00;99.90;;;;;;4353964;28;658967;-75
2022/01/19 01:40:33;;;;;;;54.27;16.07;;;-1.00;99.90;;;;;;4371493;28;659254;-75
2022/01/19 01:43:21;;;;;;;59.07;17.33;;;-1.00;99.90;;;;;;4347064;28;659234;-75
2022/01/19 01:46:17;;;;;;;58.57;19.07;;;-1.00;99.90;;;;;;4346823;28;659658;-75
2022/01/19 01:49:08;;;;;;;61.97;18.77;;;-1.00;99.90;;;;;;4350924;28;658649;-75
2022/01/19 01:55:10;;;;;;;60.50;17.80;;;-1.00;99.90;;;;;;4249333;29;658787;-74
2022/01/19 01:57:57;;;;;;;63.37;18.57;;;-1.00;99.90;;;;;;4268723;29;658727;-75
2022/01/19 02:00:44;;;;;;;58.40;18.00;;;-1.00;99.90;;;;;;4307104;29;660030;-75
2022/01/19 02:03:38;;;;;;;52.87;17.23;;;-0.90;99.90;;;;;;4284413;29;658824;-75
2022/01/19 02:06:32;;;;;;;60.77;17.73;;;-0.90;99.90;;;;;;4275756;29;658481;-75
2022/01/19 02:09:23;;;;;;;56.00;18.90;;;-0.90;99.90;;;;;;4239851;29;659230;-75
2022/01/19 02:21:51;;;;;;;47.23;14.60;;;-0.80;99.90;;;;;;4263469;29;659265;-75
2022/01/19 02:24:43;;;;;;;51.73;15.63;;;-0.80;99.90;;;;;;4241792;29;658768;-74
2022/01/19 02:40:13;;;;;;;53.93;14.50;;;-0.80;99.90;;;;;;4333682;28;659164;-75
2022/01/19 02:43:08;;;;;;;51.07;15.63;;;-0.80;99.90;;;;;;4346864;28;659013;-75
2022/01/19 02:49:14;;;;;;;43.20;12.83;;;-0.80;99.90;;;;;;4342901;28;658282;-75
2022/01/19 02:52:04;;;;;;;51.43;14.20;;;-0.80;99.90;;;;;;4344520;28;658886;-75
2022/01/19 02:54:52;;;;;;;50.33;13.47;;;-0.80;99.90;;;;;;4358032;28;658786;-75
2022/01/19 02:57:41;;;;;;;44.67;14.00;;;-0.90;99.90;;;;;;4373480;28;659515;-74
2022/01/19 03:09:45;;;;;;;44.60;14.53;;;-0.90;99.90;;;;;;4313474;28;659514;-74
2022/01/19 03:12:32;;;;;;;42.30;13.87;;;-0.90;99.90;;;;;;4361941;28;658928;-75
2022/01/19 03:15:20;;;;;;;52.60;15.10;;;-0.90;99.90;;;;;;4374560;28;657947;-75
2022/01/19 03:18:07;;;;;;;79.07;13.37;;;-0.80;99.90;;;;;;4353775;28;658794;-75
2022/01/19 03:20:55;;;;;;;38.53;12.63;;;-0.80;99.90;;;;;;4372557;28;659125;-75
2022/01/19 03:23:42;;;;;;;46.80;14.77;;;-0.80;99.90;;;;;;4358094;28;659275;-74
2022/01/19 03:26:31;;;;;;;48.73;14.50;;;-0.80;99.90;;;;;;4378608;28;659350;-75
2022/01/19 03:29:19;;;;;;;46.57;15.13;;;-0.70;99.90;;;;;;4351202;28;659805;-75
2022/01/19 03:32:08;;;;;;;46.90;14.57;;;-0.80;99.90;;;;;;4368404;28;658575;-75
2022/01/19 03:34:55;;;;;;;45.47;14.90;;;-0.80;99.90;;;;;;4376490;28;658936;-75
2022/01/19 03:37:43;;;;;;;48.90;13.53;;;-0.80;99.90;;;;;;4355330;28;658543;-75
2022/01/19 03:40:30;;;;;;;31.63;12.07;;;-0.80;99.90;;;;;;4367623;28;658986;-75
2022/01/19 03:43:19;;;;;;;46.55;14.23;;;-0.80;99.90;;;;;;4356205;28;659026;-75
2022/01/19 03:46:13;;;;;;;52.23;15.27;;;-0.80;99.90;;;;;;4353879;28;658808;-75
2022/01/19 03:49:09;;;;;;;48.93;14.87;;;-0.80;99.90;;;;;;4355078;28;658641;-75
2022/01/19 03:51:59;;;;;;;45.83;13.88;;;-0.80;99.90;;;;;;4355408;28;658447;-75
2022/01/19 03:54:46;;;;;;;51.22;14.57;;;-0.80;99.90;;;;;;4360214;28;658428;-75
2022/01/19 03:57:34;;;;;;;46.33;13.43;;;-0.80;99.90;;;;;;4367025;28;660488;-75
2022/01/19 04:00:23;;;;;;;38.10;13.43;;;-0.80;99.90;;;;;;4381102;28;658811;-75
2022/01/19 04:03:12;;;;;;;46.43;13.57;;;-0.80;99.90;;;;;;4351875;28;659413;-74
2022/01/19 04:06:05;;;;;;;35.43;12.63;;;-0.80;99.90;;;;;;4350687;28;659671;-75
2022/01/19 04:08:53;;;;;;;43.63;12.80;;;-0.80;99.90;;;;;;4334406;28;659227;-75
2022/01/19 04:11:40;;;;;;;45.70;15.13;;;-0.80;99.90;;;;;;4374760;28;660177;-75
2022/01/19 04:14:28;;;;;;;38.53;12.80;;;-0.70;99.90;;;;;;4354412;28;658846;-74
2022/01/19 04:17:17;;;;;;;40.37;13.70;;;-0.80;99.90;;;;;;4372150;28;658555;-75
2022/01/19 04:20:06;;;;;;;47.03;13.57;;;-0.70;99.90;;;;;;4345523;28;659222;-74
2022/01/19 04:22:53;;;;;;;36.63;13.27;;;-0.70;99.90;;;;;;4351938;28;659515;-75
2022/01/19 04:25:41;;;;;;;39.67;13.23;;;-0.70;99.90;;;;;;4375833;28;658672;-74
2022/01/19 04:28:28;;;;;;;45.67;14.23;;;-0.70;99.90;;;;;;4355019;28;659717;-75
2022/01/19 04:31:16;;;;;;;42.63;14.03;;;-0.80;99.90;;;;;;4361766;28;658619;-75
2022/01/19 04:34:06;;;;;;;40.27;13.37;;;-0.80;99.90;;;;;;4355582;28;659488;-75
2022/01/19 04:37:25;;;;;;;44.30;12.87;;;-0.80;99.90;;;;;;4356226;28;658693;-75
2022/01/19 05:02:14;;;;;;;38.40;12.40;;;-0.70;99.90;;;;;;4266186;29;659070;-75
2022/01/19 05:05:10;;;;;;;38.37;12.30;;;-0.70;99.90;;;;;;4241696;29;658752;-75
2022/01/19 05:08:04;;;;;;;43.27;13.30;;;-0.70;99.90;;;;;;4261708;29;658888;-75
2022/01/19 05:13:57;;;;;;;45.07;12.30;;;-0.80;99.90;;;;;;4225971;29;659257;-74
2022/01/19 05:16:45;;;;;;;43.43;13.03;;;-0.80;99.90;;;;;;4264319;29;658725;-75
2022/01/19 05:19:32;;;;;;;33.10;11.93;;;-0.80;99.90;;;;;;4237510;29;659331;-74
2022/01/19 05:22:21;;;;;;;33.77;11.70;;;-0.80;99.90;;;;;;4269042;28;658951;-75
2022/01/19 05:25:09;;;;;;;25.43;8.10;;;-0.80;99.90;;;;;;4297499;28;659800;-75
2022/01/19 05:27:57;;;;;;;39.87;12.33;;;-0.70;99.90;;;;;;4304428;28;657537;-75
2022/01/19 05:30:44;;;;;;;40.27;12.10;;;-0.70;99.90;;;;;;4322361;28;659209;-75
2022/01/19 05:33:32;;;;;;;36.13;12.05;;;-0.70;99.90;;;;;;4330669;28;658438;-75
2022/01/19 05:36:19;;;;;;;35.93;11.67;;;-0.70;99.90;;;;;;4371416;28;659028;-75
2022/01/19 05:39:08;;;;;;;34.83;10.73;;;-0.70;99.90;;;;;;4353292;28;659042;-75
2022/01/19 05:41:56;;;;;;;31.60;10.37;;;-0.80;99.90;;;;;;4355486;28;659369;-75
2022/01/19 05:44:44;;;;;;;38.47;11.00;;;-0.80;99.90;;;;;;4338275;28;659744;-75
2022/01/19 05:47:32;;;;;;;48.37;11.83;;;-0.80;99.90;;;;;;4365905;28;659015;-75
2022/01/19 05:50:19;;;;;;;27.67;9.70;;;-0.70;99.90;;;;;;4371269;28;660018;-75
2022/01/19 05:53:07;;;;;;;32.37;9.17;;;-0.70;99.90;;;;;;4352466;28;657310;-75
2022/01/19 05:55:56;;;;;;;35.17;10.13;;;-0.80;99.90;;;;;;4376264;28;659062;-75
2022/01/19 05:58:43;;;;;;;32.97;11.53;;;-0.80;99.90;;;;;;4350196;28;660098;-75
2022/01/19 06:01:31;;;;;;;36.63;11.90;;;-0.80;99.90;;;;;;4376748;28;658536;-75
2022/01/19 06:04:18;;;;;;;34.80;10.90;;;-0.90;99.90;;;;;;4351698;28;659754;-74
2022/01/19 06:07:06;;;;;;;38.97;11.90;;;-1.00;99.90;;;;;;4361907;28;658460;-75
2022/01/19 06:10:02;;;;;;;39.07;12.67;;;-1.10;99.90;;;;;;4348896;28;659220;-75
2022/01/19 06:12:51;;;;;;;47.75;12.02;;;-1.20;99.90;;;;;;4354293;28;658427;-75
2022/01/19 06:15:39;;;;;;;35.70;12.83;;;-1.20;99.90;;;;;;4355038;28;659294;-75
2022/01/19 06:18:27;;;;;;;36.77;13.23;;;-1.30;99.90;;;;;;4362081;28;658929;-75
2022/01/19 06:21:16;;;;;;;39.40;13.87;;;-1.30;99.90;;;;;;4367701;28;659500;-75
2022/01/19 06:24:04;;;;;;;41.90;13.73;;;-1.40;99.90;;;;;;4352839;28;659648;-75
2022/01/19 06:26:51;;;;;;;33.20;13.37;;;-1.40;99.90;;;;;;4372875;28;659667;-75
2022/01/19 06:29:40;;;;;;;36.53;12.10;;;-1.50;99.90;;;;;;4349703;28;660813;-75
2022/01/19 06:32:28;;;;;;;36.17;12.80;;;-1.50;99.90;;;;;;4354314;28;658734;-75
2022/01/19 06:35:15;;;;;;;34.63;12.97;;;-1.60;99.90;;;;;;4367032;28;660030;-75
2022/01/19 06:38:03;;;;;;;34.60;12.75;;;-1.60;99.90;;;;;;4336974;28;659389;-75
2022/01/19 06:40:50;;;;;;;40.33;12.53;;;-1.60;99.90;;;;;;4374231;28;659696;-75
2022/01/19 06:44:27;;;;;;;32.60;13.80;;;-1.60;99.90;;;;;;4354947;28;658950;-75
2022/01/19 06:47:16;;;;;;;39.07;13.50;;;-1.60;99.90;;;;;;4354843;28;658984;-75
2022/01/19 06:50:04;;;;;;;32.50;12.33;;;-1.70;99.90;;;;;;4348484;28;658533;-75
2022/01/19 06:52:52;;;;;;;39.70;13.27;;;-1.70;99.90;;;;;;4361985;28;658844;-75
2022/01/19 06:55:40;;;;;;;32.03;12.03;;;-1.70;99.90;;;;;;4377491;28;659066;-75
2022/01/19 06:58:27;;;;;;;39.10;12.13;;;-1.80;99.90;;;;;;4358615;28;659541;-75
2022/01/19 07:01:15;;;;;;;35.63;12.80;;;-1.80;99.90;;;;;;4362714;28;658738;-75
2022/01/19 07:04:04;;;;;;;44.67;14.37;;;-1.80;99.90;;;;;;4364247;28;659870;-75
2022/01/19 07:06:52;;;;;;;39.10;12.97;;;-1.70;99.90;;;;;;4359249;28;658516;-75
2022/01/19 07:09:39;;;;;;;40.13;13.13;;;-1.70;99.90;;;;;;4379516;28;660599;-75
2022/01/19 07:12:29;;;;;;;33.08;12.25;;;-1.70;99.90;;;;;;4340381;28;659094;-75
2022/01/19 07:15:16;;;;;;;39.73;11.20;;;-1.60;99.90;;;;;;4377488;28;658171;-75
2022/01/19 07:18:04;;;;;;;32.93;12.40;;;-1.60;99.90;;;;;;4352766;28;659283;-75
2022/01/19 07:20:53;;;;;;;31.00;10.00;;;-1.60;99.90;;;;;;4365284;28;658878;-75
2022/01/19 07:23:41;;;;;;;38.07;13.40;;;-1.50;99.90;;;;;;4387735;28;658945;-75
2022/01/19 07:26:28;;;;;;;40.70;12.17;;;-1.50;99.90;;;;;;4357872;28;659057;-74
2022/01/19 07:29:16;;;;;;;26.43;7.07;;;-1.60;99.90;;;;;;4378791;28;659103;-76
2022/01/19 07:32:04;;;;;;;52.60;14.07;;;-1.60;99.90;;;;;;4358239;28;657766;-76
2022/01/19 07:34:52;;;;;;;35.00;10.33;;;-1.60;99.90;;;;;;4373725;28;658414;-76
2022/01/19 07:37:41;;;;;;;39.80;12.67;;;-1.60;99.90;;;;;;4386515;28;659670;-76
2022/01/19 07:40:28;;;;;;;32.93;9.60;;;-1.50;99.90;;;;;;4358281;28;658620;-75
2022/01/19 07:43:16;;;;;;;42.65;13.25;;;-1.50;99.90;;;;;;4377319;28;657929;-76
2022/01/19 07:46:04;;;;;;;37.07;12.03;;;-1.50;99.90;;;;;;4353544;28;659801;-76
2022/01/19 07:48:51;;;;;;;30.43;10.17;;;-1.40;99.90;;;;;;4370973;28;658865;-76
2022/01/19 07:51:39;;;;;;;27.00;7.83;;;-1.40;99.90;;;;;;4351722;28;660002;-76
2022/01/19 07:54:28;;;;;;;35.50;12.10;;;-1.40;99.90;;;;;;4382928;28;657633;-76
2022/01/19 07:57:15;;;;;;;32.73;11.37;;;-1.30;99.90;;;;;;4353189;28;658798;-76
2022/01/19 08:00:04;;;;;;;31.45;10.55;;;-1.30;99.90;;;;;;4357799;28;658670;-76
2022/01/19 08:02:52;;;;;;;29.03;9.63;;;-1.40;99.90;;;;;;4376529;28;658901;-75
2022/01/19 08:05:40;;;;;;;34.03;10.30;;;-1.30;99.90;;;;;;4360893;28;658471;-76
2022/01/19 08:08:27;;;;;;;27.10;9.10;;;-1.20;99.90;;;;;;4342720;28;659057;-76
2022/01/19 08:11:16;;;;;;;17.50;7.30;;;-1.20;99.90;;;;;;4373856;28;658301;-76
2022/01/19 08:14:04;;;;;;;26.90;7.10;;;-1.10;99.90;;;;;;4353777;28;658152;-76
2022/01/19 08:16:52;;;;;;;32.27;9.83;;;-1.00;99.90;;;;;;4372033;28;657778;-76
2022/01/19 08:19:40;;;;;;;25.90;8.67;;;-0.90;99.90;;;;;;4369298;28;658439;-76
2022/01/19 08:22:27;;;;;;;25.80;7.43;;;-0.90;99.90;;;;;;4341355;28;657967;-76
2022/01/19 08:25:15;;;;;;;28.43;8.00;;;-0.60;99.90;;;;;;4376013;28;658235;-75
2022/01/19 08:28:04;;;;;;;28.10;8.83;;;-0.40;99.90;;;;;;4341955;28;657990;-75
2022/01/19 08:30:52;;;;;;;24.50;7.67;;;-0.10;99.90;;;;;;4360478;28;658284;-75
2022/01/19 08:33:39;;;;;;;24.27;7.90;;;-0.10;99.90;;;;;;4378872;28;659241;-76
2022/01/19 08:36:28;;;;;;;23.70;8.60;;;-0.10;99.90;;;;;;4355050;28;657341;-73
2022/01/19 08:39:15;;;;;;;15.70;6.13;;;-0.10;99.90;;;;;;4375704;28;659020;-74
2022/01/19 08:42:03;;;;;;;22.10;9.40;;;0.10;99.90;;;;;;4341435;28;657980;-74
2022/01/19 08:44:52;;;;;;;23.57;8.63;;;0.20;99.90;;;;;;4382797;28;656936;-74
2022/01/19 08:47:40;;;;;;;21.90;8.73;;;0.10;99.90;;;;;;4354342;28;656947;-74
2022/01/19 08:50:28;;;;;;;28.43;9.10;;;0.20;99.90;;;;;;4356482;28;656572;-74
2022/01/19 08:53:16;;;;;;;13.40;5.70;;;0.20;99.90;;;;;;4375600;28;656840;-75
2022/01/19 08:56:04;;;;;;;16.60;6.60;;;0.10;99.90;;;;;;4340625;28;658167;-74
2022/01/19 08:58:52;;;;;;;20.02;8.15;;;-0.30;99.90;;;;;;4356943;28;656440;-74
2022/01/19 09:01:41;;;;;;;21.27;8.10;;;-0.10;99.90;;;;;;4381312;28;658130;-76
2022/01/19 09:04:29;;;;;;;22.57;9.60;;;0.10;99.90;;;;;;4351013;28;658529;-74
2022/01/19 09:07:18;;;;;;;23.07;8.70;;;0.00;99.90;;;;;;4365334;28;656524;-75
2022/01/19 09:10:08;;;;;;;19.13;7.33;;;0.00;99.90;;;;;;4378674;28;656729;-75
2022/01/19 09:12:56;;;;;;;20.43;7.93;;;-0.10;99.90;;;;;;4358025;28;656929;-75
2022/01/19 09:15:44;;;;;;;24.73;7.77;;;-0.10;99.90;;;;;;4355749;28;657494;-75
2022/01/19 09:18:32;;;;;;;19.37;7.63;;;0.00;99.90;;;;;;4372185;28;657669;-74
2022/01/19 09:21:20;;;;;;;19.35;5.88;;;0.00;99.90;;;;;;4353191;28;657975;-75
2022/01/19 09:24:09;;;;;;;24.10;7.43;;;0.10;99.90;;;;;;4356546;28;657199;-75
2022/01/19 09:26:57;;;;;;;21.80;9.13;;;0.20;99.90;;;;;;4362582;28;657158;-73
2022/01/19 09:29:45;;;;;;;22.90;9.37;;;0.00;99.90;;;;;;4380794;28;656872;-74
2022/01/19 09:32:33;;;;;;;21.98;9.65;;;0.10;99.90;;;;;;4351591;28;657181;-74
2022/01/19 09:35:25;;;;;;;24.57;7.87;;;0.40;99.90;;;;;;4372223;28;656730;-74
2022/01/19 09:38:12;;;;;;;20.43;7.13;;;0.90;99.90;;;;;;4334484;28;656849;-75
2022/01/19 09:41:00;;;;;;;22.47;9.13;;;1.00;99.90;;;;;;4376352;28;657169;-74
2022/01/19 09:43:48;;;;;;;25.23;9.60;;;0.90;99.90;;;;;;4355076;28;656845;-73
2022/01/19 09:46:35;;;;;;;26.87;8.30;;;1.00;99.90;;;;;;4372683;28;657296;-75
2022/01/19 09:49:23;;;;;;;19.90;8.57;;;1.00;99.90;;;;;;4353268;28;656959;-73
2022/01/19 09:52:12;;;;;;;27.00;9.80;;;1.50;99.90;;;;;;4375641;28;656609;-73
2022/01/19 09:55:00;;;;;;;25.17;10.23;;;2.10;99.90;;;;;;4354936;28;656695;-73
2022/01/19 09:57:47;;;;;;;16.00;7.30;;;2.40;99.90;;;;;;4357118;28;657840;-73
2022/01/19 10:00:35;;;;;;;30.00;9.40;;;2.60;99.90;;;;;;4369271;28;658635;-73
2022/01/19 10:03:24;;;;;;;30.80;9.57;;;2.70;99.90;;;;;;4348088;28;657494;-73
2022/01/19 10:06:12;;;;;;;19.03;8.40;;;3.10;99.90;;;;;;4376362;28;658357;-73
2022/01/19 10:09:01;;;;;;;19.13;10.60;;;3.10;99.90;;;;;;4352687;28;657212;-73
2022/01/19 10:18:16;;;;;;;23.15;10.10;;;2.20;99.90;;;;;;4283511;29;658006;-75
2022/01/19 10:21:08;;;;;;;22.97;10.67;;;1.80;99.90;;;;;;4255393;29;658321;-75
2022/01/19 10:23:57;;;;;;;22.17;9.87;;;1.60;99.90;;;;;;4278929;29;658395;-75
2022/01/19 10:26:46;;;;;;;23.60;11.00;;;1.40;99.90;;;;;;4283205;29;657696;-75
2022/01/19 10:29:34;;;;;;;17.53;7.80;;;1.60;99.90;;;;;;4283769;29;658172;-74
2022/01/19 10:32:22;;;;;;;24.00;10.37;;;1.70;99.90;;;;;;4301645;29;656916;-75
2022/01/19 10:35:14;;;;;;;23.50;9.97;;;2.20;99.90;;;;;;4307705;29;658381;-76
2022/01/19 10:38:15;;;;;;;18.13;7.63;;;2.70;99.90;;;;;;4268224;29;656500;-76
2022/01/19 10:41:08;;;;;;;20.37;8.90;;;3.20;99.90;;;;;;4257361;29;657193;-76
2022/01/19 10:43:57;;;;;;;18.48;7.32;;;3.70;99.90;;;;;;4282177;29;657239;-76
2022/01/19 10:46:46;;;;;;;26.93;8.70;;;4.10;99.90;;;;;;4282929;29;658311;-76
2022/01/19 10:49:50;;;;;;;21.17;9.17;;;4.60;95.80;;;;;;4286484;29;656294;-76
2022/01/19 10:52:39;;;;;;;20.03;8.57;;;4.80;88.50;;;;;;4321271;28;656995;-76
2022/01/19 10:55:29;;;;;;;21.93;8.50;;;4.60;93.70;;;;;;4357472;28;656314;-76
2022/01/19 10:58:17;;;;;;;20.37;9.47;;;4.40;92.40;;;;;;4356155;28;656821;-75
2022/01/19 11:01:06;;;;;;;24.47;9.03;;;4.40;93.80;;;;;;4379875;28;658321;-75
2022/01/19 11:03:54;;;;;;;18.37;8.27;;;5.10;92.30;;;;;;4350179;28;657148;-76
2022/01/19 11:06:42;;;;;;;16.10;6.87;;;5.30;77.60;;;;;;4366996;28;656740;-76
2022/01/19 11:09:30;;;;;;;23.77;9.00;;;5.00;81.80;;;;;;4374952;28;656768;-76
2022/01/19 11:12:19;;;;;;;22.10;8.93;;;4.80;86.80;;;;;;4354553;28;656238;-75
2022/01/19 11:15:09;;;;;;;19.83;7.73;;;4.80;82.30;;;;;;4347651;28;656672;-76
2022/01/19 11:17:58;;;;;;;21.63;9.07;;;4.40;94.70;;;;;;4377599;28;656604;-75
2022/01/19 11:20:47;;;;;;;19.37;7.23;;;4.60;90.30;;;;;;4355141;28;656407;-75
2022/01/19 11:23:37;;;;;;;21.80;8.87;;;4.80;91.00;;;;;;4355165;28;657647;-76
2022/01/19 11:26:29;;;;;;;21.00;8.97;;;5.10;89.90;;;;;;4347270;28;656644;-75
2022/01/19 11:29:19;;;;;;;19.73;8.63;;;5.60;79.10;;;;;;4352315;28;656284;-75
2022/01/19 11:32:18;;;;;;;17.37;7.20;;;6.00;78.00;;;;;;4343215;28;657418;-75
2022/01/19 11:35:08;;;;;;;18.90;8.65;;;5.50;78.20;;;;;;4347811;28;657198;-76
2022/01/19 11:37:55;;;;;;;18.60;7.87;;;5.10;86.10;;;;;;4358080;28;657151;-75
2022/01/19 11:40:43;;;;;;;20.83;9.33;;;5.50;76.70;;;;;;4354386;28;656796;-75
2022/01/19 11:43:31;;;;;;;18.97;8.80;;;5.30;82.70;;;;;;4379364;28;656499;-75
2022/01/19 11:46:28;;;;;;;22.00;8.23;;;5.30;79.80;;;;;;4354564;28;657460;-76
2022/01/19 11:49:19;;;;;;;17.03;8.13;;;5.50;83.10;;;;;;4353627;28;656846;-75
2022/01/19 11:52:08;;;;;;;17.43;8.10;;;5.70;74.80;;;;;;4348170;28;656735;-76
2022/01/19 11:55:12;;;;;;;16.27;8.10;;;5.90;75.70;;;;;;4360975;28;657811;-76
2022/01/19 11:58:15;;;;;;;15.80;7.73;;;6.40;73.80;;;;;;4352315;28;657043;-75
2022/01/19 12:01:04;;;;;;;19.00;8.63;;;7.20;67.50;;;;;;4333444;28;658939;-76
2022/01/19 12:03:52;;;;;;;22.90;8.43;;;7.60;62.80;;;;;;4369696;28;658042;-75
2022/01/19 12:06:42;;;;;;;19.20;9.20;;;7.10;62.40;;;;;;4340657;28;656732;-75
2022/01/19 12:09:31;;;;;;;21.13;9.27;;;7.20;63.50;;;;;;4323366;28;657316;-75
2022/01/19 12:12:21;;;;;;;21.87;8.90;;;7.20;62.40;;;;;;4320189;28;656428;-75
2022/01/19 12:15:10;;;;;;;18.53;9.07;;;7.10;63.30;;;;;;4321832;28;656550;-75
2022/01/19 12:18:08;;;;;;;20.67;8.77;;;8.20;63.30;;;;;;4320883;28;656879;-75
2022/01/19 12:20:55;;;;;;;16.03;8.10;;;9.10;57.80;;;;;;4322967;28;657373;-75
2022/01/19 12:23:43;;;;;;;16.43;7.90;;;9.10;56.60;;;;;;4321701;28;657092;-76
2022/01/19 12:27:00;;;;;;;18.10;7.93;;;8.70;56.00;;;;;;4345466;28;656872;-75
2022/01/19 12:29:50;;;;;;;15.77;7.50;;;8.40;56.60;;;;;;4325228;28;656323;-74
2022/01/19 12:32:46;;;;;;;14.67;8.47;;;8.40;56.10;;;;;;4322068;28;656645;-75
2022/01/19 12:35:35;;;;;;;18.67;7.33;;;8.10;56.50;;;;;;4295388;28;657614;-75
2022/01/19 12:38:23;;;;;;;17.07;7.50;;;8.40;56.90;;;;;;4321909;28;656657;-75
2022/01/19 12:41:11;;;;;;;15.30;7.50;;;8.50;55.50;;;;;;4346347;28;656240;-74
2022/01/19 12:44:00;;;;;;;13.83;6.87;;;8.30;56.70;;;;;;4317276;28;656782;-75
2022/01/19 12:46:51;;;;;;;17.10;7.73;;;8.40;56.20;;;;;;4325303;28;656494;-75
2022/01/19 12:49:39;;;;;;;16.63;7.60;;;8.60;56.60;;;;;;4326399;28;657263;-76
2022/01/19 12:52:27;;;;;;;17.53;8.20;;;9.10;54.80;;;;;;4347548;28;656938;-76
2022/01/19 12:55:17;;;;;;;14.83;7.50;;;9.70;55.60;;;;;;4321242;28;656587;-76
2022/01/19 12:58:10;;;;;;;18.05;8.10;;;10.60;51.30;;;;;;4322198;28;656631;-75
2022/01/19 13:01:00;;;;;;;17.87;8.37;;;10.60;50.40;;;;;;4319190;28;657555;-75
2022/01/19 13:03:48;;;;;;;18.23;8.27;;;10.50;48.60;;;;;;4317013;28;657259;-75
2022/01/19 13:06:35;;;;;;;21.67;8.20;;;11.00;49.20;;;;;;4374136;28;657969;-76
2022/01/19 13:09:29;;;;;;;16.97;7.17;;;11.70;48.70;;;;;;4354621;28;657499;-75
2022/01/19 13:12:17;;;;;;;15.10;6.93;;;12.30;44.60;;;;;;4375812;28;657352;-75
2022/01/19 13:15:05;;;;;;;15.43;7.30;;;13.00;46.50;;;;;;4354883;28;658600;-75
2022/01/19 13:17:55;;;;;;;18.50;7.10;;;13.60;42.80;;;;;;4353257;28;658542;-75
2022/01/19 13:20:49;;;;;;;17.67;8.37;;;13.50;41.80;;;;;;4356213;28;658277;-75
2022/01/19 13:23:39;;;;;;;21.20;8.20;;;13.60;42.00;;;;;;4349992;28;658357;-76
2022/01/19 13:26:37;;;;;;;22.70;7.47;;;13.10;40.70;;;;;;4360372;28;657426;-76
2022/01/19 13:29:31;;;;;;;19.17;7.50;;;12.90;40.90;;;;;;4351219;28;658078;-75
2022/01/19 13:32:19;;;;;;;20.77;7.60;;;13.10;41.50;;;;;;4328666;28;659104;-75
2022/01/19 13:35:09;;;;;;;15.87;7.10;;;13.60;40.70;;;;;;4371774;28;657296;-74
2022/01/19 13:37:58;;;;;;;16.63;7.17;;;13.10;41.00;;;;;;4347859;28;657631;-75
2022/01/19 13:40:47;;;;;;;16.33;7.50;;;13.00;41.60;;;;;;4346517;28;657441;-76
2022/01/19 13:43:36;;;;;;;15.30;6.47;;;13.40;41.40;;;;;;4373073;28;657631;-76
2022/01/19 13:46:25;;;;;;;16.77;7.60;;;14.60;39.60;;;;;;4352736;28;658262;-76
2022/01/19 13:49:13;;;;;;;17.80;7.27;;;14.20;38.30;;;;;;4353625;28;657691;-76
2022/01/19 13:52:02;;;;;;;16.03;7.13;;;14.50;38.20;;;;;;4367230;28;657098;-76
2022/01/19 13:54:50;;;;;;;16.57;7.57;;;14.30;38.30;;;;;;4353064;28;659108;-76
2022/01/19 13:57:38;;;;;;;17.73;7.28;;;14.80;37.80;;;;;;4347743;28;657529;-76
2022/01/19 14:00:26;;;;;;;18.10;6.70;;;15.30;38.00;;;;;;4371959;28;657952;-76
2022/01/19 14:03:14;;;;;;;14.87;7.37;;;15.60;36.70;;;;;;4355411;28;657699;-76
2022/01/19 14:06:01;;;;;;;19.63;7.50;;;15.60;37.20;;;;;;4372533;28;658046;-76
2022/01/19 14:08:50;;;;;;;19.67;7.47;;;15.90;35.50;;;;;;4351942;28;659633;-76
2022/01/19 14:11:38;;;;;;;15.77;7.37;;;16.40;35.70;;;;;;4356497;28;657287;-75
2022/01/19 14:14:29;;;;;;;19.20;8.03;;;16.60;34.70;;;;;;4371423;28;658016;-76
2022/01/19 14:17:25;;;;;;;17.40;8.33;;;16.60;34.10;;;;;;4352429;28;657829;-75
2022/01/19 14:20:16;;;;;;;16.60;7.77;;;16.60;34.40;;;;;;4355101;28;658058;-76
2022/01/19 14:23:09;;;;;;;19.43;7.83;;;16.20;33.80;;;;;;4356718;28;657763;-76
2022/01/19 14:26:08;;;;;;;19.60;8.47;;;15.20;34.90;;;;;;4368464;28;657399;-75
2022/01/19 14:29:10;;;;;;;21.20;8.93;;;14.90;36.10;;;;;;4345579;28;658218;-76
2022/01/19 14:31:59;;;;;;;20.00;7.97;;;14.70;36.30;;;;;;4325121;28;658209;-76
2022/01/19 14:34:47;;;;;;;21.50;8.80;;;13.90;37.10;;;;;;4361657;28;657969;-75
2022/01/19 14:37:37;;;;;;;21.13;9.07;;;12.30;38.90;;;;;;4376843;28;658653;-76
2022/01/19 14:40:25;;;;;;;18.53;8.60;;;10.70;42.10;;;;;;4351826;28;657920;-76
2022/01/19 14:43:15;;;;;;;21.63;8.67;;;9.00;45.90;;;;;;4349883;28;657943;-74
2022/01/19 14:46:06;;;;;;;22.90;9.43;;;8.00;48.30;;;;;;4355707;28;656757;-75
2022/01/19 14:48:54;;;;;;;26.57;9.97;;;7.30;50.40;;;;;;4349942;28;656969;-75
2022/01/19 14:51:43;;;;;;;24.80;9.43;;;6.50;53.10;;;;;;4369734;28;657179;-74
2022/01/19 14:54:30;;;;;;;28.17;9.40;;;5.80;54.40;;;;;;4375307;28;657612;-76
2022/01/19 14:57:18;;;;;;;29.45;10.15;;;5.20;56.90;;;;;;4355341;28;657206;-75
2022/01/19 15:00:09;;;;;;;25.07;10.03;;;4.80;58.40;;;;;;4365712;28;657855;-77
2022/01/19 15:03:00;;;;;;;27.87;9.90;;;4.20;61.40;;;;;;4367934;28;657744;-75
2022/01/19 15:05:47;;;;;;;28.57;9.87;;;3.80;65.10;;;;;;4356289;28;656692;-75
2022/01/19 15:08:35;;;;;;;30.83;11.33;;;3.50;70.30;;;;;;4378025;28;658366;-75
2022/01/19 15:11:23;;;;;;;29.40;10.90;;;3.20;76.90;;;;;;4355308;28;658316;-75
2022/01/19 15:14:11;;;;;;;25.90;10.37;;;2.90;83.80;;;;;;4370517;28;658702;-75
2022/01/19 15:17:03;;;;;;;30.10;10.70;;;2.50;92.80;;;;;;4355583;28;657882;-75
2022/01/19 15:19:56;;;;;;;28.20;11.10;;;2.30;97.60;;;;;;4350395;28;658314;-75
2022/01/19 15:22:44;;;;;;;27.73;10.40;;;2.10;99.90;;;;;;4352481;28;657938;-75
2022/01/19 15:25:34;;;;;;;27.20;10.80;;;1.80;99.90;;;;;;4367171;28;658005;-75
2022/01/19 15:28:21;;;;;;;25.13;10.43;;;1.60;99.90;;;;;;4374936;28;658374;-76
2022/01/19 15:31:11;;;;;;;28.90;10.70;;;1.50;99.90;;;;;;4355349;28;659446;-75
2022/01/19 15:34:00;;;;;;;25.03;10.80;;;1.30;99.90;;;;;;4352445;28;657480;-75